createdAt,value
2018-09-18T00:01:38.834Z,27.33
2018-09-18T00:04:07.318Z,31.17
2018-09-18T00:06:35.640Z,30.37
2018-09-18T00:09:04.957Z,31.60
2018-09-18T00:11:33.375Z,29.40
2018-09-18T00:14:01.762Z,29.03
2018-09-18T00:16:30.137Z,29.17
2018-09-18T00:18:58.517Z,28.07
2018-09-18T00:21:26.841Z,28.67
2018-09-18T00:23:55.442Z,28.43
2018-09-18T00:26:23.772Z,28.00
2018-09-18T00:28:52.161Z,29.17
2018-09-18T00:31:20.530Z,28.87
2018-09-18T00:33:48.851Z,30.47
2018-09-18T00:36:17.197Z,26.80
2018-09-18T00:38:45.535Z,29.33
2018-09-18T00:41:13.937Z,28.07
2018-09-18T00:43:42.314Z,30.07
2018-09-18T00:46:11.113Z,26.77
2018-09-18T00:48:39.438Z,28.63
2018-09-18T00:51:07.810Z,31.00
2018-09-18T00:53:36.193Z,27.83
2018-09-18T00:56:04.550Z,28.00
2018-09-18T00:58:32.938Z,29.30
2018-09-18T01:01:01.517Z,28.63
2018-09-18T01:03:29.984Z,33.90
2018-09-18T01:05:58.365Z,29.40
2018-09-18T01:08:26.765Z,28.70
2018-09-18T01:10:55.119Z,30.47
2018-09-18T01:13:23.522Z,29.97
2018-09-18T01:15:51.869Z,31.90
2018-09-18T01:18:20.391Z,28.00
2018-09-18T01:20:48.791Z,30.23
2018-09-18T01:23:17.137Z,26.90
2018-09-18T01:25:45.488Z,29.87
2018-09-18T01:28:13.814Z,29.40
2018-09-18T01:30:42.168Z,27.10
2018-09-18T01:33:10.542Z,28.07
2018-09-18T01:35:38.898Z,28.40
2018-09-18T01:38:07.293Z,29.43
2018-09-18T01:40:35.670Z,28.70
2018-09-18T01:43:04.025Z,29.00
2018-09-18T01:45:32.466Z,29.03
2018-09-18T01:48:00.942Z,30.50
2018-09-18T01:50:29.377Z,27.83
2018-09-18T01:52:57.735Z,28.37
2018-09-18T01:55:26.314Z,27.40
2018-09-18T01:57:54.797Z,27.77
2018-09-18T02:00:23.154Z,31.63
2018-09-18T02:02:51.611Z,27.10
2018-09-18T02:05:19.913Z,30.03
2018-09-18T02:07:48.338Z,29.23
2018-09-18T02:10:16.679Z,29.77
2018-09-18T02:12:45.027Z,28.10
2018-09-18T02:15:13.390Z,27.13
2018-09-18T02:17:41.922Z,27.20
2018-09-18T02:20:10.433Z,27.17
2018-09-18T02:22:38.794Z,28.73
2018-09-18T02:25:07.114Z,28.70
2018-09-18T02:27:35.454Z,27.67
2018-09-18T02:30:03.785Z,27.87
2018-09-18T02:32:32.334Z,28.77
2018-09-18T02:35:00.657Z,29.33
2018-09-18T02:37:29.261Z,28.67
2018-09-18T02:39:57.674Z,30.10
2018-09-18T02:42:26.057Z,28.13
2018-09-18T02:44:54.377Z,27.70
2018-09-18T02:47:22.741Z,27.93
2018-09-18T02:49:51.261Z,26.80
2018-09-18T02:52:20.109Z,29.20
2018-09-18T02:54:48.794Z,29.57
2018-09-18T02:57:17.258Z,27.17
2018-09-18T02:59:45.882Z,27.80
2018-09-18T03:02:14.195Z,26.97
2018-09-18T03:04:42.675Z,30.43
2018-09-18T03:07:11.083Z,27.07
2018-09-18T03:09:39.385Z,30.07
2018-09-18T03:12:07.846Z,28.87
2018-09-18T03:14:36.437Z,31.67
2018-09-18T03:17:04.751Z,29.50
2018-09-18T03:19:33.301Z,27.70
2018-09-18T03:22:01.623Z,28.33
2018-09-18T03:24:29.979Z,28.27
2018-09-18T03:26:58.333Z,29.80
2018-09-18T03:29:26.707Z,28.00
2018-09-18T03:31:55.197Z,28.57
2018-09-18T03:34:23.547Z,30.30
2018-09-18T03:36:51.997Z,29.30
2018-09-18T03:39:20.726Z,27.43
2018-09-18T03:41:49.125Z,33.13
2018-09-18T03:44:17.484Z,37.30
2018-09-18T03:46:45.942Z,29.03
2018-09-18T03:49:14.263Z,28.50
2018-09-18T03:51:42.606Z,29.27
2018-09-18T03:54:10.964Z,28.93
2018-09-18T03:56:39.327Z,28.77
2018-09-18T03:59:07.669Z,29.60
2018-09-18T04:01:35.997Z,31.00
2018-09-18T04:04:04.611Z,29.97
2018-09-18T04:06:32.950Z,30.50
2018-09-18T04:09:01.405Z,30.70
2018-09-18T04:11:29.822Z,30.43
2018-09-18T04:13:58.430Z,30.50
2018-09-18T04:16:26.741Z,30.93
2018-09-18T04:18:55.118Z,28.50
2018-09-18T04:21:27.653Z,29.07
2018-09-18T04:23:56.122Z,27.97
2018-09-18T04:26:24.456Z,31.13
2018-09-18T04:28:52.825Z,30.03
2018-09-18T04:31:21.515Z,29.00
2018-09-18T04:33:49.949Z,29.07
2018-09-18T04:36:18.272Z,29.77
2018-09-18T04:38:46.622Z,28.37
2018-09-18T04:41:14.937Z,31.30
2018-09-18T04:43:43.274Z,29.93
2018-09-18T04:46:11.613Z,29.53
2018-09-18T04:48:40.186Z,29.27
2018-09-18T04:51:08.645Z,29.80
2018-09-18T04:53:36.970Z,31.07
2018-09-18T04:56:11.906Z,28.37
2018-09-18T04:58:40.218Z,32.00
2018-09-18T05:01:08.628Z,28.50
2018-09-18T05:03:36.978Z,33.00
2018-09-18T05:06:05.356Z,29.60
2018-09-18T05:08:33.787Z,31.07
2018-09-18T05:11:02.146Z,30.50
2018-09-18T05:13:30.550Z,30.67
2018-09-18T05:15:58.893Z,30.57
2018-09-18T05:18:27.226Z,30.07
2018-09-18T05:20:55.622Z,33.20
2018-09-18T05:23:23.978Z,32.13
2018-09-18T05:25:52.378Z,31.90
2018-09-18T05:28:20.704Z,30.77
2018-09-18T05:30:49.228Z,29.47
2018-09-18T05:33:17.689Z,31.83
2018-09-18T05:35:46.185Z,33.00
2018-09-18T05:38:14.714Z,29.47
2018-09-18T05:40:43.286Z,31.20
2018-09-18T05:43:12.161Z,31.60
2018-09-18T05:45:40.518Z,31.27
2018-09-18T05:48:11.689Z,29.83
2018-09-18T05:50:40.734Z,30.70
2018-09-18T05:53:09.346Z,30.53
2018-09-18T05:55:37.701Z,30.40
2018-09-18T05:58:06.210Z,30.23
2018-09-18T06:00:34.566Z,30.50
2018-09-18T06:03:02.886Z,32.00
2018-09-18T06:05:31.389Z,30.27
2018-09-18T06:07:59.702Z,29.33
2018-09-18T06:10:28.217Z,32.00
2018-09-18T06:12:56.630Z,33.03
2018-09-18T06:15:25.073Z,31.20
2018-09-18T06:17:53.449Z,31.70
2018-09-18T06:20:21.834Z,32.13
2018-09-18T06:22:50.207Z,30.47
2018-09-18T06:25:18.647Z,33.10
2018-09-18T06:27:47.050Z,30.83
2018-09-18T06:30:15.667Z,31.27
2018-09-18T06:32:43.989Z,31.90
2018-09-18T06:35:12.408Z,31.60
2018-09-18T06:37:40.817Z,38.30
2018-09-18T06:40:09.279Z,31.10
2018-09-18T06:42:37.590Z,31.60
2018-09-18T06:45:06.685Z,31.30
2018-09-18T06:47:35.193Z,35.67
2018-09-18T06:50:05.049Z,31.20
2018-09-18T06:52:33.543Z,31.33
2018-09-18T06:55:02.058Z,33.53
2018-09-18T06:57:30.417Z,32.07
2018-09-18T06:59:58.800Z,33.80
2018-09-18T07:02:27.155Z,31.50
2018-09-18T07:04:55.616Z,30.80
2018-09-18T07:07:23.971Z,30.30
2018-09-18T07:09:52.365Z,34.33
2018-09-18T07:12:20.979Z,33.53
2018-09-18T07:14:49.346Z,40.43
2018-09-18T07:17:17.861Z,35.57
2018-09-18T07:19:46.226Z,35.93
2018-09-18T07:22:14.546Z,34.60
2018-09-18T07:24:42.898Z,32.10
2018-09-18T07:27:11.310Z,33.37
2018-09-18T07:29:39.739Z,33.93
2018-09-18T07:32:08.334Z,36.33
2018-09-18T07:34:36.740Z,31.77
2018-09-18T07:37:05.114Z,32.37
2018-09-18T07:39:33.545Z,31.53
2018-09-18T07:42:01.961Z,36.43
2018-09-18T07:44:30.398Z,32.43
2018-09-18T07:46:58.792Z,37.13
2018-09-18T07:49:28.476Z,39.10
2018-09-18T07:51:56.839Z,34.20
2018-09-18T07:54:25.171Z,35.50
2018-09-18T07:56:53.514Z,36.40
2018-09-18T07:59:21.877Z,36.23
2018-09-18T08:01:50.206Z,34.37
2018-09-18T08:04:18.857Z,32.67
2018-09-18T08:06:47.210Z,32.60
2018-09-18T08:09:15.594Z,32.33
2018-09-18T08:11:44.047Z,36.70
2018-09-18T08:14:12.418Z,29.50
2018-09-18T08:16:40.876Z,37.90
2018-09-18T08:19:09.262Z,36.00
2018-09-18T08:21:37.724Z,30.17
2018-09-18T08:24:06.902Z,35.47
2018-09-18T08:26:35.237Z,31.23
2018-09-18T08:29:03.588Z,31.17
2018-09-18T08:31:33.273Z,39.63
2018-09-18T08:34:01.641Z,36.07
2018-09-18T08:36:30.229Z,37.60
2018-09-18T08:38:58.929Z,33.47
2018-09-18T08:41:27.360Z,35.30
2018-09-18T08:43:55.873Z,36.80
2018-09-18T08:46:24.201Z,33.07
2018-09-18T08:48:56.375Z,30.57
2018-09-18T08:51:25.213Z,32.90
2018-09-18T08:53:53.744Z,33.70
2018-09-18T08:56:22.361Z,33.60
2018-09-18T08:58:51.363Z,34.40
2018-09-18T09:01:19.726Z,35.50
2018-09-18T09:03:48.206Z,32.13
2018-09-18T09:06:19.462Z,34.43
2018-09-18T09:08:48.125Z,33.10
2018-09-18T09:11:16.370Z,30.23
2018-09-18T09:13:44.829Z,33.10
2018-09-18T09:16:13.148Z,29.83
2018-09-18T09:18:41.553Z,30.20
2018-09-18T09:21:10.015Z,31.83
2018-09-18T09:23:38.436Z,31.53
2018-09-18T09:26:07.498Z,33.63
2018-09-18T09:28:35.948Z,37.30
2018-09-18T09:31:04.294Z,40.13
2018-09-18T09:33:32.681Z,34.93
2018-09-18T09:36:01.064Z,32.67
2018-09-18T09:38:29.422Z,30.87
2018-09-18T09:40:57.754Z,33.10
2018-09-18T09:43:26.244Z,34.23
2018-09-18T09:45:54.571Z,32.23
2018-09-18T09:48:23.258Z,30.60
2018-09-18T09:50:51.589Z,30.57
2018-09-18T09:53:20.001Z,32.67
2018-09-18T09:55:48.325Z,37.17
2018-09-18T09:58:16.940Z,51.30
2018-09-18T10:00:50.756Z,34.63
2018-09-18T10:03:19.131Z,31.40
2018-09-18T10:05:47.462Z,38.10
2018-09-18T10:08:15.833Z,32.80
2018-09-18T10:10:44.393Z,31.87
2018-09-18T10:13:12.603Z,30.07
2018-09-18T10:15:40.962Z,29.27
2018-09-18T10:18:09.434Z,29.83
2018-09-18T10:20:37.677Z,28.80
2018-09-18T10:23:06.242Z,28.30
2018-09-18T10:25:34.560Z,29.00
2018-09-18T10:28:03.138Z,32.43
2018-09-18T10:30:31.638Z,27.27
2018-09-18T10:33:00.045Z,28.40
2018-09-18T10:35:28.733Z,31.60
2018-09-18T10:37:57.112Z,28.53
2018-09-18T10:40:25.413Z,30.10
2018-09-18T10:42:53.975Z,29.63
2018-09-18T10:45:22.402Z,26.87
2018-09-18T10:47:50.798Z,25.50
2018-09-18T10:50:19.154Z,27.17
2018-09-18T10:52:47.742Z,25.63
2018-09-18T10:55:16.162Z,25.53
2018-09-18T10:57:44.580Z,25.30
2018-09-18T11:00:13.007Z,25.73
2018-09-18T11:02:41.387Z,28.07
2018-09-18T11:05:09.765Z,27.37
2018-09-18T11:07:38.566Z,28.23
2018-09-18T11:10:07.143Z,26.03
2018-09-18T11:12:35.773Z,29.23
2018-09-18T11:15:04.371Z,27.10
2018-09-18T11:17:32.625Z,26.23
2018-09-18T11:20:01.181Z,27.40
2018-09-18T11:22:29.644Z,27.90
2018-09-18T11:24:58.024Z,25.10
2018-09-18T11:27:26.303Z,26.27
2018-09-18T11:29:54.705Z,29.27
2018-09-18T11:32:23.145Z,31.00
2018-09-18T11:34:51.789Z,30.97
2018-09-18T11:37:20.211Z,27.50
2018-09-18T11:39:48.570Z,26.90
2018-09-18T11:42:16.948Z,26.90
2018-09-18T11:44:45.294Z,27.20
2018-09-18T11:47:13.651Z,28.37
2018-09-18T11:49:42.093Z,27.10
2018-09-18T11:52:10.806Z,27.63
2018-09-18T11:54:39.298Z,26.30
2018-09-18T11:57:08.009Z,28.23
2018-09-18T11:59:36.337Z,27.27
2018-09-18T12:02:04.678Z,27.63
2018-09-18T12:04:33.104Z,27.57
2018-09-18T12:07:01.412Z,30.13
2018-09-18T12:09:29.797Z,26.33
2018-09-18T12:11:58.158Z,29.47
2018-09-18T12:14:26.585Z,25.70
2018-09-18T12:16:54.963Z,27.73
2018-09-18T12:19:23.317Z,26.97
2018-09-18T12:21:51.722Z,30.60
2018-09-18T12:24:20.218Z,27.50
2018-09-18T12:26:48.568Z,27.80
2018-09-18T12:29:16.973Z,27.20
2018-09-18T12:31:45.303Z,27.67
2018-09-18T12:34:13.728Z,27.70
2018-09-18T12:36:42.041Z,26.77
2018-09-18T12:39:10.661Z,26.40
2018-09-18T12:41:39.724Z,28.00
2018-09-18T12:44:08.293Z,29.37
2018-09-18T12:46:36.705Z,27.13
2018-09-18T12:49:05.135Z,26.27
2018-09-18T12:51:33.628Z,26.67
2018-09-18T12:54:02.116Z,27.37
2018-09-18T12:56:30.441Z,25.97
2018-09-18T12:58:58.852Z,26.30
2018-09-18T13:01:27.201Z,26.27
2018-09-18T13:03:55.899Z,26.90
2018-09-18T13:06:24.460Z,26.97
2018-09-18T13:08:52.725Z,28.00
2018-09-18T13:11:21.161Z,27.70
2018-09-18T13:13:49.581Z,26.73
2018-09-18T13:16:17.906Z,33.90
2018-09-18T13:18:46.212Z,25.80
2018-09-18T13:21:14.634Z,30.40
2018-09-18T13:23:43.114Z,28.33
2018-09-18T13:26:11.474Z,26.97
2018-09-18T13:28:39.809Z,25.70
2018-09-18T13:31:09.338Z,27.47
2018-09-18T13:33:37.709Z,28.77
2018-09-18T13:36:06.245Z,28.87
2018-09-18T13:38:34.882Z,26.80
2018-09-18T13:41:03.437Z,28.30
2018-09-18T13:43:31.729Z,27.60
2018-09-18T13:46:00.117Z,29.97
2018-09-18T13:48:28.425Z,26.90
2018-09-18T13:50:57.049Z,27.20
2018-09-18T13:53:25.765Z,27.10
2018-09-18T13:55:54.129Z,27.57
2018-09-18T13:58:22.516Z,27.73
2018-09-18T14:00:50.889Z,25.90
2018-09-18T14:03:19.232Z,26.83
2018-09-18T14:05:47.674Z,32.63
2018-09-18T14:08:16.103Z,27.27
2018-09-18T14:10:44.474Z,29.60
2018-09-18T14:13:12.838Z,27.60
2018-09-18T14:15:41.273Z,26.47
2018-09-18T14:18:09.647Z,27.43
2018-09-18T14:20:38.017Z,26.60
2018-09-18T14:23:06.518Z,26.30
2018-09-18T14:25:35.051Z,27.00
2018-09-18T14:28:03.462Z,29.60
2018-09-18T14:30:31.909Z,31.53
2018-09-18T14:33:00.221Z,26.03
2018-09-18T14:35:28.710Z,26.67
2018-09-18T14:37:57.195Z,26.00
2018-09-18T14:40:25.624Z,25.43
2018-09-18T14:42:53.910Z,27.87
2018-09-18T14:45:22.469Z,27.60
2018-09-18T14:47:50.838Z,25.47
2018-09-18T14:50:19.158Z,26.70
2018-09-18T14:52:47.663Z,24.97
2018-09-18T14:55:15.996Z,25.33
2018-09-18T14:57:44.522Z,24.50
2018-09-18T15:00:12.914Z,24.77
2018-09-18T15:02:41.233Z,26.43
2018-09-18T15:05:09.737Z,29.83
2018-09-18T15:07:38.082Z,27.37
2018-09-18T15:10:06.522Z,27.93
2018-09-18T15:12:34.980Z,31.50
2018-09-18T15:15:03.358Z,28.80
2018-09-18T15:17:31.744Z,26.40
2018-09-18T15:20:00.113Z,28.10
2018-09-18T15:22:28.453Z,26.70
2018-09-18T15:24:56.917Z,29.73
2018-09-18T15:27:25.285Z,30.10
2018-09-18T15:29:53.718Z,26.90
2018-09-18T15:32:22.242Z,27.30
2018-09-18T15:34:50.702Z,27.00
2018-09-18T15:37:19.130Z,29.53
2018-09-18T15:39:47.568Z,27.33
2018-09-18T15:42:17.223Z,29.27
2018-09-18T15:44:45.676Z,26.63
2018-09-18T15:47:14.085Z,27.47
2018-09-18T15:49:42.511Z,30.33
2018-09-18T15:52:10.993Z,27.30
2018-09-18T15:54:39.244Z,28.73
2018-09-18T15:57:07.590Z,30.90
2018-09-18T15:59:36.067Z,32.07
2018-09-18T16:02:04.430Z,28.80
2018-09-18T16:04:32.767Z,26.10
2018-09-18T16:07:01.243Z,28.43
2018-09-18T16:09:29.583Z,28.80
2018-09-18T16:11:57.953Z,27.07
2018-09-18T16:14:26.742Z,26.90
2018-09-18T16:16:55.094Z,27.97
2018-09-18T16:19:23.415Z,27.60
2018-09-18T16:21:51.844Z,29.73
2018-09-18T16:24:20.175Z,29.97
2018-09-18T16:26:48.516Z,28.70
2018-09-18T16:29:16.959Z,27.90
2018-09-18T16:31:45.338Z,32.53
2018-09-18T16:34:13.694Z,29.70
2018-09-18T16:36:42.282Z,28.67
2018-09-18T16:39:10.636Z,27.90
2018-09-18T16:41:39.058Z,31.43
2018-09-18T16:44:07.475Z,31.03
2018-09-18T16:46:35.811Z,29.63
2018-09-18T16:49:04.654Z,28.00
2018-09-18T16:51:33.269Z,29.30
2018-09-18T16:54:02.054Z,29.33
2018-09-18T16:56:30.424Z,28.80
2018-09-18T16:58:58.837Z,30.03
2018-09-18T17:01:27.278Z,26.43
2018-09-18T17:03:55.686Z,30.77
2018-09-18T17:06:24.052Z,29.07
2018-09-18T17:08:52.410Z,27.17
2018-09-18T17:11:20.903Z,31.33
2018-09-18T17:13:49.522Z,27.47
2018-09-18T17:16:17.983Z,26.07
2018-09-18T17:18:46.402Z,31.67
2018-09-18T17:21:14.801Z,28.40
2018-09-18T17:23:43.239Z,27.20
2018-09-18T17:26:11.621Z,27.03
2018-09-18T17:28:40.261Z,28.30
2018-09-18T17:31:08.933Z,27.33
2018-09-18T17:33:37.827Z,27.87
2018-09-18T17:36:06.595Z,28.10
2018-09-18T17:38:35.021Z,26.53
2018-09-18T17:41:03.431Z,28.10
2018-09-18T17:43:31.790Z,28.20
2018-09-18T17:46:00.205Z,33.30
2018-09-18T17:48:28.614Z,34.70
2018-09-18T17:50:57.064Z,30.17
2018-09-18T17:53:25.508Z,31.40
2018-09-18T17:55:53.834Z,26.73
2018-09-18T17:58:22.278Z,30.00
2018-09-18T18:00:50.693Z,27.60
2018-09-18T18:03:19.055Z,28.03
2018-09-18T18:05:47.410Z,24.43
2018-09-18T18:08:15.969Z,29.07
2018-09-18T18:10:44.342Z,25.50
2018-09-18T18:13:13.850Z,25.57
2018-09-18T18:15:42.251Z,24.87
2018-09-18T18:18:10.836Z,26.30
2018-09-18T18:20:39.326Z,28.10
2018-09-18T18:23:07.764Z,29.57
2018-09-18T18:25:36.401Z,29.80
2018-09-18T18:28:04.826Z,31.10
2018-09-18T18:30:33.321Z,30.87
2018-09-18T18:33:01.857Z,28.03
2018-09-18T18:35:30.312Z,27.20
2018-09-18T18:37:58.695Z,25.53
2018-09-18T18:40:27.170Z,24.60
2018-09-18T18:42:55.610Z,27.40
2018-09-18T18:45:24.011Z,25.57
2018-09-18T18:47:52.480Z,24.60
2018-09-18T18:50:20.843Z,24.60
2018-09-18T18:52:49.317Z,23.73
2018-09-18T18:55:17.772Z,25.87
2018-09-18T18:57:46.532Z,25.17
2018-09-18T19:00:15.091Z,26.90
2018-09-18T19:02:43.652Z,24.63
2018-09-18T19:05:12.225Z,26.33
2018-09-18T19:07:40.639Z,25.13
2018-09-18T19:10:09.117Z,28.07
2018-09-18T19:12:37.489Z,25.10
2018-09-18T19:15:05.916Z,27.20
2018-09-18T19:17:34.508Z,28.77
2018-09-18T19:20:02.949Z,24.70
2018-09-18T19:22:31.288Z,23.47
2018-09-18T19:24:59.699Z,26.30
2018-09-18T19:27:28.175Z,24.53
2018-09-18T19:29:56.553Z,27.63
2018-09-18T19:32:25.187Z,26.30
2018-09-18T19:34:53.852Z,26.17
2018-09-18T19:37:22.310Z,28.63
2018-09-18T19:39:51.136Z,27.93
2018-09-18T19:42:19.619Z,25.77
2018-09-18T19:44:48.017Z,26.30
2018-09-18T19:47:16.421Z,24.87
2018-09-18T19:49:44.874Z,35.43
2018-09-18T19:52:13.380Z,24.27
2018-09-18T19:54:42.166Z,26.33
2018-09-18T19:57:10.563Z,24.87
2018-09-18T19:59:38.939Z,28.93
2018-09-18T20:02:07.337Z,26.30
2018-09-18T20:04:37.162Z,24.83
2018-09-18T20:07:05.681Z,25.10
2018-09-18T20:09:34.919Z,24.20
2018-09-18T20:12:03.332Z,24.60
2018-09-18T20:14:31.813Z,27.47
2018-09-18T20:17:00.244Z,28.10
2018-09-18T20:19:28.726Z,24.20
2018-09-18T20:21:57.117Z,28.87
2018-09-18T20:24:25.603Z,25.70
2018-09-18T20:26:53.919Z,24.37
2018-09-18T20:29:22.357Z,28.97
2018-09-18T20:31:50.718Z,24.37
2018-09-18T20:34:19.115Z,24.10
2018-09-18T20:36:47.597Z,25.17
2018-09-18T20:39:16.037Z,25.47
2018-09-18T20:41:44.615Z,25.67
2018-09-18T20:44:13.056Z,26.10
2018-09-18T20:46:41.611Z,24.50
2018-09-18T20:49:10.069Z,25.00
2018-09-18T20:51:38.495Z,25.57
2018-09-18T20:54:06.838Z,25.30
2018-09-18T20:56:35.198Z,25.80
2018-09-18T20:59:04.877Z,26.03
2018-09-18T21:01:33.365Z,26.20
2018-09-18T21:04:01.754Z,28.67
2018-09-18T21:06:30.210Z,25.97
2018-09-18T21:08:58.615Z,28.67
2018-09-18T21:11:27.036Z,25.60
2018-09-18T21:13:56.828Z,32.13
2018-09-18T21:16:25.177Z,29.03
2018-09-18T21:18:53.752Z,29.60
2018-09-18T21:21:22.246Z,24.83
2018-09-18T21:23:50.660Z,25.90
2018-09-18T21:26:19.653Z,25.47
2018-09-18T21:28:49.391Z,24.50
2018-09-18T21:31:17.917Z,27.53
2018-09-18T21:33:46.377Z,25.63
2018-09-18T21:36:14.751Z,25.73
2018-09-18T21:38:43.579Z,24.67
2018-09-18T21:41:12.200Z,24.13
2018-09-18T21:43:40.564Z,25.20
2018-09-18T21:46:09.001Z,26.23
2018-09-18T21:48:37.354Z,25.47
2018-09-18T21:51:05.725Z,25.63
2018-09-18T21:53:34.211Z,28.63
2018-09-18T21:56:02.711Z,25.80
2018-09-18T21:58:31.051Z,25.50
2018-09-18T22:01:03.719Z,25.87
2018-09-18T22:03:32.600Z,25.63
2018-09-18T22:06:01.486Z,28.63
2018-09-18T22:08:29.935Z,25.70
2018-09-18T22:10:58.555Z,26.93
2018-09-18T22:13:27.167Z,25.90
2018-09-18T22:15:55.512Z,25.97
2018-09-18T22:18:23.839Z,24.87
2018-09-18T22:20:52.204Z,26.13
2018-09-18T22:23:20.628Z,26.33
2018-09-18T22:25:48.959Z,30.60
2018-09-18T22:28:17.322Z,24.77
2018-09-18T22:30:45.643Z,26.53
2018-09-18T22:33:14.266Z,25.80
2018-09-18T22:35:42.607Z,26.77
2018-09-18T22:38:11.096Z,25.07
2018-09-18T22:40:39.423Z,26.50
2018-09-18T22:43:07.978Z,27.77
2018-09-18T22:45:36.559Z,25.33
2018-09-18T22:48:05.012Z,25.50
2018-09-18T22:50:33.640Z,26.50
2018-09-18T22:53:02.012Z,26.77
2018-09-18T22:55:30.409Z,26.63
2018-09-18T22:57:58.931Z,25.70
2018-09-18T23:00:27.255Z,25.93
2018-09-18T23:02:55.610Z,26.10
2018-09-18T23:05:24.246Z,26.90
2018-09-18T23:07:52.671Z,36.37
2018-09-18T23:10:21.005Z,27.33
2018-09-18T23:12:49.337Z,28.27
2018-09-18T23:15:17.919Z,25.93
2018-09-18T23:17:46.264Z,26.37
2018-09-18T23:20:14.623Z,26.00
2018-09-18T23:22:42.959Z,30.80
2018-09-18T23:25:11.325Z,26.37
2018-09-18T23:27:39.664Z,24.70
2018-09-18T23:30:08.126Z,26.80
2018-09-18T23:32:36.614Z,27.43
2018-09-18T23:35:05.004Z,26.37
2018-09-18T23:37:33.437Z,27.30
2018-09-18T23:40:01.905Z,27.20
2018-09-18T23:42:30.373Z,28.10
2018-09-18T23:44:58.724Z,25.50
2018-09-18T23:47:27.317Z,26.27
2018-09-18T23:49:55.668Z,25.47
2018-09-18T23:52:24.112Z,26.40
2018-09-18T23:54:52.478Z,31.90
2018-09-18T23:57:20.999Z,28.00
2018-09-18T23:59:49.307Z,26.13
